Freeport, Michigan
Current Conditions -  °F | °C
As of 9:53 PM on Thursday 27 Nov 2014 (Local Time) from KGRR Reporting Station
Light Snow Light Snow  
Wind Chill: 11°   Ceiling: 3800
Heat Index: 20°   Visibility: 10mi
Dew Point: 11°   Wind: 7mph
Humidity: 68%   Direction: 330°NNW
Pressure: 30.34"   Gusts: NA
Location:  42.77°N, 85.31°W
Report Text: KGRR 280253Z 33006KT 10SM -SN FEW024 OVC038 M07/M12 A3034 RMK AO2 SNB51 SLP288 P0000 60000 T10671117 51007
Loading
Personal Weather Stations






























Interactive Weather Map New forecast layout! Learn more

10-Day Weather Forecast

Advertisements
Track Severe Weather on mobile